الصفحة الرئيسية
METAR-TAF:

METAR-TAF

مطار :

مطار مالطا الدولي

مالطا, مالطة

دائرة عرض: 35-51N, خط طول: 014-29E, ارتفاع: 91 متر

مراقبة الطقس الحالي

تاريخ ووقت الإصدار 22 دقيقة قبل الساعة 18:45UTC
ريح 7 عقدة من الشمال/الشمال الغربي
درجة الحرارة 26°درجة مئوية
الرطوبة 79%
ضغط 1013 hPa
الرؤية 10 كم أو أكثر
غيوم قليلة على ارتفاع 3000 قدم

METAR: LMML 141845Z 33007KT 9999 FEW030 26/22 Q1013 NOSIG

زمن: 21:07 (19:07 UTC)

توقعات

تاريخ ووقت الإصدار 2ساعات و 7 دقيقة قبل الساعة 17:00UTC
التوقعات صالحة من14 الساعة 18 UTC إلى 15 الساعة 18 UTC
ريح 12 عقدة من الغرب/الشمال الغربي
الرؤية 10 كم أو أكثر
غيوم قليلة على ارتفاع 1800 قدم
مؤقت
من 15 الساعة 15 UTC إلى 15 الساعة 18 UTC
ريح 17 عقدة من الغرب/الشمال الغربي تتزايد حتى 27 عقدة

TAF: LMML 141700Z 1418/1518 30012KT 9999 FEW018 TEMPO 1515/1518 29017G27KT

أرصاد الطقس والتوقعات من أكثر من 4000 مطار (تقارير الطقس للمطار METAR والتنبؤ بالطقس بالمطارTAF).

المحطات المتاحة هي النقط الصفراء والحمراء على الخريطة.

حرك المؤشر فوق النقطة لمعرفة اسم المحطة.

ثم انقر لمعرفة أرصاد وتوقعات الطقس.

لتغيير الخارطة: اضغط على الأزرار الخضراء مع رمز الصليب الأسود للتكبير. على الزر الأخضر مع شرطة للتصغير، أو على الأسهم الخضراء للخرائط المجاورة.


METAR-TAF: